createdAt,value
2022-12-17T00:02:34.943Z,15.35
2022-12-17T00:08:05.057Z,14.48
2022-12-17T00:10:49.752Z,13.38
2022-12-17T00:13:41.540Z,13.15
2022-12-17T00:16:26.990Z,13.60
2022-12-17T00:19:12.117Z,14.75
2022-12-17T00:24:42.240Z,14.07
2022-12-17T00:27:26.930Z,13.02
2022-12-17T00:30:11.813Z,14.02
2022-12-17T00:32:57.107Z,13.48
2022-12-17T00:35:42.047Z,12.38
2022-12-17T00:38:33.467Z,12.65
2022-12-17T00:41:18.400Z,13.15
2022-12-17T00:44:03.379Z,12.95
2022-12-17T00:46:48.749Z,13.18
2022-12-17T00:49:33.939Z,13.18
2022-12-17T00:52:19.844Z,14.02
2022-12-17T00:55:04.644Z,13.90
2022-12-17T00:57:49.451Z,14.73
2022-12-17T01:00:34.788Z,14.65
2022-12-17T01:03:29.068Z,13.13
2022-12-17T01:06:14.341Z,13.27
2022-12-17T01:08:59.160Z,13.63
2022-12-17T01:11:44.493Z,12.85
2022-12-17T01:14:29.281Z,12.50
2022-12-17T01:17:14.151Z,11.75
2022-12-17T01:19:59.078Z,12.65
2022-12-17T01:22:44.472Z,12.82
2022-12-17T01:25:29.389Z,12.85
2022-12-17T01:28:14.395Z,12.98
2022-12-17T01:30:59.198Z,13.55
2022-12-17T01:33:44.524Z,12.93
2022-12-17T01:36:29.777Z,12.38
2022-12-17T01:39:15.316Z,12.68
2022-12-17T01:42:00.637Z,12.68
2022-12-17T01:44:57.928Z,11.77
2022-12-17T01:47:45.361Z,12.75
2022-12-17T01:50:33.158Z,14.00
2022-12-17T01:53:21.580Z,13.05
2022-12-17T01:56:07.600Z,14.63
2022-12-17T01:58:54.400Z,14.13
2022-12-17T02:01:40.409Z,14.25
2022-12-17T02:04:27.666Z,15.32
2022-12-17T02:07:23.467Z,15.15
2022-12-17T02:10:21.556Z,15.20
2022-12-17T02:13:10.927Z,15.10
2022-12-17T02:16:02.735Z,14.18
2022-12-17T02:19:01.553Z,14.35
2022-12-17T02:21:48.328Z,12.95
2022-12-17T02:24:52.779Z,13.07
2022-12-17T02:27:38.237Z,13.20
2022-12-17T02:30:26.482Z,14.95
2022-12-17T02:33:12.746Z,13.27
2022-12-17T02:36:03.192Z,14.45
2022-12-17T02:38:50.191Z,13.80
2022-12-17T02:41:43.762Z,13.55
2022-12-17T02:44:31.826Z,13.07
2022-12-17T02:47:18.117Z,14.35
2022-12-17T02:50:03.630Z,14.25
2022-12-17T02:52:52.581Z,15.90
2022-12-17T02:55:38.001Z,14.07
2022-12-17T02:58:23.089Z,13.05
2022-12-17T03:03:53.046Z,13.38
2022-12-17T03:06:37.813Z,13.57
2022-12-17T03:09:23.259Z,14.35
2022-12-17T03:12:08.711Z,15.00
2022-12-17T03:14:54.087Z,14.68
2022-12-17T03:17:44.090Z,14.45
2022-12-17T03:20:29.432Z,13.55
2022-12-17T03:23:31.586Z,15.05
2022-12-17T03:26:18.512Z,17.08
2022-12-17T03:29:03.893Z,14.88
2022-12-17T03:31:49.289Z,14.60
2022-12-17T03:34:34.110Z,14.82
2022-12-17T03:37:19.396Z,14.13
2022-12-17T03:40:04.486Z,13.82
2022-12-17T03:45:34.692Z,13.30
2022-12-17T03:48:24.656Z,13.43
2022-12-17T03:51:11.790Z,14.02
2022-12-17T03:53:57.011Z,14.00
2022-12-17T03:56:42.446Z,14.20
2022-12-17T03:59:28.081Z,14.00
2022-12-17T04:02:13.671Z,14.38
2022-12-17T04:04:58.648Z,14.40
2022-12-17T04:07:43.504Z,14.57
2022-12-17T04:10:29.170Z,15.43
2022-12-17T04:13:14.471Z,15.32
2022-12-17T04:15:59.957Z,15.07
2022-12-17T04:18:45.071Z,15.10
2022-12-17T04:24:15.256Z,15.25
2022-12-17T04:27:00.632Z,17.05
2022-12-17T04:29:45.707Z,15.02
2022-12-17T04:35:20.773Z,14.35
2022-12-17T04:38:06.312Z,13.30
2022-12-17T04:40:51.367Z,13.18
2022-12-17T04:46:22.119Z,14.50
2022-12-17T04:51:52.205Z,13.43
2022-12-17T04:54:37.344Z,14.50
2022-12-17T04:57:22.616Z,14.10
2022-12-17T05:00:07.915Z,12.65
2022-12-17T05:02:52.932Z,12.70
2022-12-17T05:05:37.915Z,12.55
2022-12-17T05:08:23.350Z,12.05
2022-12-17T05:11:08.368Z,11.95
2022-12-17T05:16:38.515Z,11.90
2022-12-17T05:19:23.369Z,12.05
2022-12-17T05:22:08.861Z,12.88
2022-12-17T05:24:53.678Z,13.52
2022-12-17T05:27:38.820Z,12.80
2022-12-17T05:30:24.536Z,11.57
2022-12-17T05:33:20.141Z,12.88
2022-12-17T05:36:15.884Z,13.48
2022-12-17T05:39:00.765Z,12.77
2022-12-17T05:41:45.627Z,11.43
2022-12-17T05:44:30.342Z,10.98
2022-12-17T05:47:15.648Z,12.82
2022-12-17T05:50:00.641Z,11.48
2022-12-17T05:52:46.073Z,12.63
2022-12-17T05:55:31.474Z,12.40
2022-12-17T05:58:24.627Z,12.70
2022-12-17T06:01:18.151Z,12.27
2022-12-17T06:04:03.424Z,11.50
2022-12-17T06:06:48.464Z,10.88
2022-12-17T06:09:33.554Z,11.88
2022-12-17T06:12:19.221Z,12.13
2022-12-17T06:15:04.063Z,11.75
2022-12-17T06:17:49.575Z,11.60
2022-12-17T06:20:34.766Z,11.95
2022-12-17T06:23:29.601Z,11.73
2022-12-17T06:26:15.361Z,13.30
2022-12-17T06:29:01.831Z,12.50
2022-12-17T06:31:47.223Z,12.30
2022-12-17T06:34:32.482Z,11.40
2022-12-17T06:37:17.987Z,12.02
2022-12-17T06:40:02.744Z,12.07
2022-12-17T06:42:47.525Z,11.85
2022-12-17T06:45:32.562Z,12.05
2022-12-17T06:51:13.230Z,12.15
2022-12-17T06:53:59.313Z,12.25
2022-12-17T06:56:44.665Z,13.10
2022-12-17T06:59:29.857Z,13.32
2022-12-17T07:02:14.986Z,13.20
2022-12-17T07:04:59.942Z,12.57
2022-12-17T07:07:45.247Z,12.82
2022-12-17T07:10:30.096Z,11.90
2022-12-17T07:13:22.923Z,12.25
2022-12-17T07:16:08.015Z,12.73
2022-12-17T07:21:38.365Z,11.75
2022-12-17T07:24:23.697Z,11.98
2022-12-17T07:27:08.673Z,12.45
2022-12-17T07:29:53.537Z,12.60
2022-12-17T07:32:38.449Z,13.73
2022-12-17T07:35:23.773Z,13.10
2022-12-17T07:38:08.586Z,13.43
2022-12-17T07:40:53.524Z,13.40
2022-12-17T07:43:38.679Z,13.13
2022-12-17T07:46:23.851Z,13.45
2022-12-17T07:51:53.899Z,12.75
2022-12-17T07:54:38.811Z,13.07
2022-12-17T07:57:23.605Z,13.60
2022-12-17T08:00:08.553Z,13.27
2022-12-17T08:05:38.770Z,12.75
2022-12-17T08:11:15.465Z,13.55
2022-12-17T08:14:00.201Z,15.30
2022-12-17T08:16:45.284Z,14.00
2022-12-17T08:22:15.602Z,14.48
2022-12-17T08:25:00.817Z,14.80
2022-12-17T08:27:46.232Z,17.02
2022-12-17T08:30:31.398Z,16.00
2022-12-17T08:33:22.054Z,16.42
2022-12-17T08:36:15.522Z,16.80
2022-12-17T08:39:01.529Z,19.55
2022-12-17T08:41:51.100Z,17.85
2022-12-17T08:44:39.061Z,17.08
2022-12-17T08:47:23.753Z,17.92
2022-12-17T08:50:08.664Z,23.55
2022-12-17T08:52:53.592Z,19.17
2022-12-17T08:55:39.012Z,17.83
2022-12-17T08:58:23.766Z,18.25
2022-12-17T09:01:09.049Z,15.60
2022-12-17T09:03:54.340Z,16.95
2022-12-17T09:06:39.676Z,17.25
2022-12-17T09:09:25.132Z,19.55
2022-12-17T09:12:10.377Z,21.65
2022-12-17T09:14:55.189Z,17.00
2022-12-17T09:17:40.536Z,17.15
2022-12-17T09:20:29.244Z,14.18
2022-12-17T09:23:14.676Z,14.93
2022-12-17T09:28:44.291Z,11.93
2022-12-17T09:31:35.359Z,13.35
2022-12-17T09:34:22.269Z,13.23
2022-12-17T09:39:52.575Z,10.88
2022-12-17T09:42:51.781Z,12.98
2022-12-17T09:46:01.970Z,11.23
2022-12-17T09:49:18.504Z,11.68
2022-12-17T09:52:03.788Z,6.72
2022-12-17T09:55:01.242Z,1.75
2022-12-17T09:57:51.227Z,1.92
2022-12-17T10:00:43.776Z,1.90
2022-12-17T10:03:41.768Z,1.95
2022-12-17T10:06:40.832Z,1.52
2022-12-17T10:09:32.306Z,1.70
2022-12-17T10:12:38.237Z,2.63
2022-12-17T10:15:25.297Z,4.65
2022-12-17T10:18:11.060Z,4.13
2022-12-17T10:21:07.054Z,4.72
2022-12-17T10:23:53.197Z,4.95
2022-12-17T10:26:42.349Z,5.72
2022-12-17T10:29:47.318Z,3.25
2022-12-17T10:32:33.506Z,4.47
2022-12-17T10:35:21.312Z,3.20
2022-12-17T10:38:06.640Z,3.63
2022-12-17T10:40:54.422Z,3.83
2022-12-17T10:43:44.430Z,4.70
2022-12-17T10:46:29.479Z,4.25
2022-12-17T10:52:50.440Z,6.18
2022-12-17T10:55:43.836Z,5.15
2022-12-17T10:58:41.985Z,4.88
2022-12-17T11:01:31.403Z,4.72
2022-12-17T11:04:17.088Z,4.80
2022-12-17T11:07:09.120Z,4.70
2022-12-17T11:09:58.818Z,3.85
2022-12-17T11:12:56.991Z,4.82
2022-12-17T11:15:54.233Z,4.40
2022-12-17T11:18:44.624Z,5.15
2022-12-17T11:21:34.305Z,4.90
2022-12-17T11:24:22.980Z,5.40
2022-12-17T11:27:13.516Z,5.35
2022-12-17T11:29:58.637Z,5.53
2022-12-17T11:33:07.368Z,6.03
2022-12-17T11:36:06.356Z,5.22
2022-12-17T11:38:57.112Z,6.47
2022-12-17T11:41:58.246Z,6.60
2022-12-17T11:44:58.202Z,5.55
2022-12-17T11:48:05.274Z,7.38
2022-12-17T11:51:09.130Z,6.70
2022-12-17T11:54:23.476Z,7.20
2022-12-17T11:57:26.446Z,8.60
2022-12-17T12:00:31.580Z,6.47
2022-12-17T12:03:33.641Z,6.25
2022-12-17T12:06:20.309Z,5.95
2022-12-17T12:09:23.303Z,7.32
2022-12-17T12:12:23.481Z,7.07
2022-12-17T12:15:30.656Z,6.50
2022-12-17T12:18:20.611Z,7.05
2022-12-17T12:21:24.146Z,4.88
2022-12-17T12:24:22.205Z,3.88
2022-12-17T12:27:42.354Z,4.97
2022-12-17T12:30:36.352Z,3.75
2022-12-17T12:33:41.965Z,5.22
2022-12-17T12:36:30.618Z,3.75
2022-12-17T12:39:17.474Z,3.20
2022-12-17T12:42:29.435Z,4.30
2022-12-17T12:45:36.424Z,3.50
2022-12-17T12:48:37.010Z,4.00
2022-12-17T12:51:33.611Z,3.30
2022-12-17T12:54:20.925Z,2.80
2022-12-17T12:57:06.279Z,2.40
2022-12-17T12:59:55.972Z,2.60
2022-12-17T13:02:50.254Z,2.00
2022-12-17T13:05:35.126Z,1.65
2022-12-17T13:08:08.443Z,2.22
2022-12-17T13:10:37.165Z,2.13
2022-12-17T13:13:12.289Z,1.40
2022-12-17T13:15:45.940Z,1.55
2022-12-17T13:18:18.183Z,1.85
2022-12-17T13:20:55.946Z,2.22
2022-12-17T13:23:41.021Z,1.80
2022-12-17T13:28:41.157Z,2.80
2022-12-17T13:31:19.908Z,2.58
2022-12-17T13:34:19.911Z,2.35
2022-12-17T13:36:55.555Z,2.08
2022-12-17T13:39:32.014Z,2.35
2022-12-17T13:41:58.639Z,2.13
2022-12-17T13:44:29.852Z,2.10
2022-12-17T13:46:56.657Z,5.28
2022-12-17T13:49:24.606Z,5.88
2022-12-17T13:52:11.775Z,4.07
2022-12-17T13:54:38.637Z,5.90
2022-12-17T13:57:10.825Z,11.10
2022-12-17T13:59:38.222Z,9.70
2022-12-17T14:02:04.908Z,11.35
2022-12-17T14:04:31.941Z,2.75
2022-12-17T14:07:03.284Z,2.38
2022-12-17T14:09:39.026Z,1.80
2022-12-17T14:12:22.205Z,2.20
2022-12-17T14:14:55.865Z,2.65
2022-12-17T14:17:25.140Z,2.25
2022-12-17T14:20:14.687Z,2.38
2022-12-17T14:22:51.104Z,2.70
2022-12-17T14:25:21.856Z,2.67
2022-12-17T14:27:54.492Z,2.50
2022-12-17T14:31:02.481Z,3.15
2022-12-17T14:33:34.469Z,2.30
2022-12-17T14:36:06.349Z,2.20
2022-12-17T14:38:45.060Z,2.80
2022-12-17T14:41:33.694Z,2.45
2022-12-17T14:44:03.421Z,2.30
2022-12-17T14:46:31.991Z,2.95
2022-12-17T14:49:00.657Z,2.53
2022-12-17T14:51:42.178Z,2.30
2022-12-17T14:54:14.870Z,2.53
2022-12-17T14:56:42.230Z,2.28
2022-12-17T14:59:34.170Z,2.70
2022-12-17T15:02:05.633Z,2.95
2022-12-17T15:04:32.699Z,3.50
2022-12-17T15:06:59.673Z,3.20
2022-12-17T15:09:26.302Z,3.40
2022-12-17T15:11:52.869Z,3.30
2022-12-17T15:14:19.395Z,3.10
2022-12-17T15:16:46.438Z,3.97
2022-12-17T15:19:13.073Z,3.50
2022-12-17T15:21:39.902Z,3.47
2022-12-17T15:24:10.765Z,4.30
2022-12-17T15:26:37.233Z,3.55
2022-12-17T15:29:03.763Z,3.42
2022-12-17T15:31:35.211Z,3.40
2022-12-17T15:34:02.230Z,4.03
2022-12-17T15:36:31.814Z,4.10
2022-12-17T15:38:59.108Z,3.63
2022-12-17T15:41:44.097Z,3.70
2022-12-17T15:46:37.716Z,3.55
2022-12-17T15:49:04.366Z,3.25
2022-12-17T15:51:30.927Z,4.05
2022-12-17T15:53:57.518Z,3.67
2022-12-17T15:56:26.169Z,3.90
2022-12-17T15:58:53.059Z,3.70
2022-12-17T16:01:20.160Z,4.13
2022-12-17T16:03:47.118Z,4.65
2022-12-17T16:06:13.768Z,4.25
2022-12-17T16:08:40.877Z,4.07
2022-12-17T16:11:11.928Z,4.13
2022-12-17T16:13:39.213Z,4.07
2022-12-17T16:16:07.466Z,4.90
2022-12-17T16:18:36.620Z,4.03
2022-12-17T16:21:04.769Z,3.95
2022-12-17T16:23:31.511Z,4.30
2022-12-17T16:25:59.991Z,4.53
2022-12-17T16:28:27.590Z,4.40
2022-12-17T16:31:01.564Z,4.75
2022-12-17T16:33:35.520Z,4.65
2022-12-17T16:36:03.603Z,5.55
2022-12-17T16:38:30.268Z,4.80
2022-12-17T16:40:59.117Z,4.63
2022-12-17T16:43:26.951Z,5.68
2022-12-17T16:45:54.323Z,6.10
2022-12-17T16:48:21.950Z,6.13
2022-12-17T16:50:49.456Z,7.13
2022-12-17T16:53:16.297Z,7.13
2022-12-17T16:55:48.379Z,6.10
2022-12-17T16:58:17.088Z,5.78
2022-12-17T17:00:45.655Z,5.78
2022-12-17T17:03:12.557Z,5.15
2022-12-17T17:05:40.654Z,5.72
2022-12-17T17:08:07.443Z,6.60
2022-12-17T17:10:36.860Z,6.45
2022-12-17T17:13:04.066Z,7.68
2022-12-17T17:15:30.928Z,6.57
2022-12-17T17:18:01.500Z,5.55
2022-12-17T17:20:32.286Z,6.85
2022-12-17T17:22:59.672Z,6.82
2022-12-17T17:25:38.804Z,9.60
2022-12-17T17:28:13.093Z,8.88
2022-12-17T17:30:39.593Z,8.30
2022-12-17T17:33:06.372Z,9.05
2022-12-17T17:35:32.849Z,9.63
2022-12-17T17:37:59.518Z,9.23
2022-12-17T17:40:26.021Z,9.45
2022-12-17T17:42:53.281Z,8.82
2022-12-17T17:45:19.998Z,9.40
2022-12-17T17:47:46.553Z,9.98
2022-12-17T17:50:13.151Z,10.10
2022-12-17T17:52:39.619Z,9.40
2022-12-17T17:55:06.743Z,10.88
2022-12-17T17:57:33.297Z,12.02
2022-12-17T17:59:59.859Z,12.30
2022-12-17T18:02:26.558Z,9.98
2022-12-17T18:04:53.260Z,11.48
2022-12-17T18:07:27.953Z,12.07
2022-12-17T18:09:55.356Z,13.80
2022-12-17T18:12:40.956Z,14.70
2022-12-17T18:15:16.829Z,15.65
2022-12-17T18:17:46.892Z,15.57
2022-12-17T18:20:14.336Z,16.40
2022-12-17T18:22:41.029Z,15.95
2022-12-17T18:25:07.835Z,15.38
2022-12-17T18:27:34.372Z,14.25
2022-12-17T18:30:00.848Z,17.30
2022-12-17T18:32:27.641Z,16.40
2022-12-17T18:34:54.306Z,16.27
2022-12-17T18:37:20.847Z,10.60
2022-12-17T18:39:48.813Z,9.48
2022-12-17T18:42:34.200Z,8.65
2022-12-17T18:45:00.713Z,13.30
2022-12-17T18:47:27.952Z,13.82
2022-12-17T18:49:54.445Z,10.48
2022-12-17T18:52:22.696Z,10.00
2022-12-17T18:54:49.422Z,9.23
2022-12-17T18:57:15.971Z,8.75
2022-12-17T18:59:42.487Z,11.00
2022-12-17T19:02:13.214Z,8.68
2022-12-17T19:04:40.876Z,7.50
2022-12-17T19:07:07.512Z,9.65
2022-12-17T19:09:37.077Z,7.88
2022-12-17T19:12:06.425Z,6.90
2022-12-17T19:14:33.499Z,7.05
2022-12-17T19:17:00.026Z,6.88
2022-12-17T19:19:27.009Z,5.75
2022-12-17T19:22:00.097Z,5.28
2022-12-17T19:24:27.034Z,5.22
2022-12-17T19:26:53.581Z,5.40
2022-12-17T19:29:21.030Z,5.88
2022-12-17T19:31:48.052Z,6.65
2022-12-17T19:34:16.957Z,8.27
2022-12-17T19:36:44.324Z,6.45
2022-12-17T19:39:13.315Z,7.20
2022-12-17T19:41:40.168Z,6.53
2022-12-17T19:44:11.127Z,5.70
2022-12-17T19:46:37.816Z,6.90
2022-12-17T19:49:05.129Z,7.40
2022-12-17T19:51:32.430Z,8.32
2022-12-17T19:54:03.425Z,7.72
2022-12-17T19:56:34.594Z,6.82
2022-12-17T19:59:03.872Z,8.02
2022-12-17T20:01:36.731Z,8.35
2022-12-17T20:04:03.918Z,9.10
2022-12-17T20:06:32.377Z,8.07
2022-12-17T20:08:59.789Z,8.15
2022-12-17T20:11:36.148Z,9.48
2022-12-17T20:14:29.271Z,7.90
2022-12-17T20:16:58.175Z,8.50
2022-12-17T20:19:27.580Z,9.27
2022-12-17T20:21:54.983Z,9.93
2022-12-17T20:24:27.210Z,10.07
2022-12-17T20:26:57.445Z,8.77
2022-12-17T20:29:25.350Z,10.85
2022-12-17T20:31:53.192Z,10.23
2022-12-17T20:34:20.434Z,9.05
2022-12-17T20:36:47.059Z,8.88
2022-12-17T20:39:13.751Z,7.90
2022-12-17T20:41:41.113Z,8.32
2022-12-17T20:44:13.784Z,7.57
2022-12-17T20:46:41.241Z,7.38
2022-12-17T20:49:08.134Z,6.97
2022-12-17T20:51:34.915Z,6.60
2022-12-17T20:54:02.727Z,7.22
2022-12-17T20:56:32.197Z,7.55
2022-12-17T20:59:02.483Z,7.50
2022-12-17T21:01:31.778Z,7.45
2022-12-17T21:03:59.565Z,7.70
2022-12-17T21:06:27.876Z,8.68
2022-12-17T21:08:55.703Z,8.73
2022-12-17T21:11:28.330Z,9.00
2022-12-17T21:13:55.546Z,9.05
2022-12-17T21:16:25.707Z,8.73
2022-12-17T21:18:53.041Z,7.95
2022-12-17T21:21:22.892Z,8.77
2022-12-17T21:23:50.396Z,8.60
2022-12-17T21:26:26.391Z,9.20
2022-12-17T21:28:55.053Z,8.93
2022-12-17T21:31:30.704Z,8.45
2022-12-17T21:34:00.652Z,7.78
2022-12-17T21:36:29.450Z,8.50
2022-12-17T21:38:56.462Z,8.55
2022-12-17T21:41:26.575Z,8.68
2022-12-17T21:43:58.685Z,8.27
2022-12-17T21:46:27.330Z,8.95
2022-12-17T21:48:54.640Z,7.43
2022-12-17T21:51:22.546Z,8.23
2022-12-17T21:53:56.600Z,7.90
2022-12-17T21:56:23.878Z,8.10
2022-12-17T21:58:56.575Z,7.55
2022-12-17T22:01:26.134Z,7.65
2022-12-17T22:03:54.617Z,7.80
2022-12-17T22:06:26.037Z,7.35
2022-12-17T22:09:01.839Z,6.10
2022-12-17T22:11:36.581Z,6.35
2022-12-17T22:14:08.483Z,6.05
2022-12-17T22:16:42.491Z,6.15
2022-12-17T22:19:22.134Z,6.63
2022-12-17T22:21:50.892Z,7.00
2022-12-17T22:24:21.145Z,6.13
2022-12-17T22:26:48.433Z,5.97
2022-12-17T22:29:36.032Z,7.28
2022-12-17T22:32:20.742Z,7.22
2022-12-17T22:36:05.537Z,8.35
2022-12-17T22:41:51.381Z,7.50
2022-12-17T22:43:42.648Z,7.10
2022-12-17T22:44:37.200Z,6.88
2022-12-17T22:46:16.695Z,6.35
2022-12-17T22:48:43.305Z,5.85
2022-12-17T22:51:12.748Z,6.63
2022-12-17T22:53:52.488Z,5.95
2022-12-17T22:56:34.079Z,6.22
2022-12-17T22:59:07.304Z,6.63
2022-12-17T23:01:34.113Z,6.20
2022-12-17T23:04:02.544Z,7.20
2022-12-17T23:06:29.253Z,7.25
2022-12-17T23:08:56.724Z,6.95
2022-12-17T23:11:25.530Z,6.55
2022-12-17T23:13:53.239Z,9.00
2022-12-17T23:16:20.239Z,8.60
2022-12-17T23:18:48.719Z,10.48
2022-12-17T23:21:18.229Z,10.52
2022-12-17T23:23:45.168Z,11.63
2022-12-17T23:26:15.347Z,11.70
2022-12-17T23:28:42.702Z,11.75
2022-12-17T23:31:13.575Z,11.73
2022-12-17T23:33:40.812Z,11.70
2022-12-17T23:36:13.350Z,12.52
2022-12-17T23:38:40.453Z,11.88
2022-12-17T23:41:13.227Z,11.43
2022-12-17T23:43:40.640Z,12.38
2022-12-17T23:46:08.691Z,11.95
2022-12-17T23:48:42.051Z,12.15
2022-12-17T23:51:13.342Z,13.10
2022-12-17T23:53:40.428Z,12.10
2022-12-17T23:56:13.892Z,10.68
2022-12-17T23:58:42.536Z,10.52
